< < Back
Terminal Aerodrome Forecast


Current Version              Previous Versions:   1  2  3  4  5  6  7  8  9  

Terminal Aerodrome Forecast

545
FTUS42 KCHS 291732
TAFCHS
TAF
KCHS 291732Z 2918/3018 10012KT P6SM VCSH SCT030 BKN050
     FM292000 12012G18KT P6SM SCT040 BKN060
     FM300200 09006KT P6SM SCT020
     FM300800 VRB04KT P6SM VCSH SCT010 BKN035
     FM301500 11010KT P6SM SCT020 BKN040=

Latest METAR

492
SAUS80 KWBC 300200
MTRCHS
METAR KCHS 300156Z 12003KT 10SM FEW020 23/20 A3018 RMK AO2 SLP220
T02330200


USA.gov is the U.S. government's official web portal to all federal, state and local government web resources and services.